Time;durP1;ratioP1;P1;durP2;ratioP2;P2;SDS_P1;SDS_P2;PMS_P1;PMS_P2;Temp;Humidity;BMP_temperature;BMP_pressure;BME280_temperature;BME280_humidity;BME280_pressure;Samples;Min_cycle;Max_cycle;Signal;HPM_P1;HPM_P2
2022/12/10 00:01:49;;;;;;;67.80;27.90;;;;;;;;;;5079854;28;20090;-63
2022/12/10 00:04:16;;;;;;;76.25;28.98;;;;;;;;;;5065442;28;20051;-63
2022/12/10 00:06:42;;;;;;;83.47;33.75;;;;;;;;;;5094733;28;20040;-63
2022/12/10 00:09:11;;;;;;;66.22;24.52;;;;;;;;;;5076370;28;20048;-63
2022/12/10 00:11:38;;;;;;;59.95;24.70;;;;;;;;;;5058857;28;20514;-63
2022/12/10 00:14:06;;;;;;;71.80;29.20;;;;;;;;;;5093998;28;20044;-63
2022/12/10 00:16:33;;;;;;;52.35;22.33;;;;;;;;;;5092981;28;20076;-63
2022/12/10 00:18:59;;;;;;;84.43;31.45;;;;;;;;;;5094410;28;20244;-63
2022/12/10 00:21:27;;;;;;;75.25;31.83;;;;;;;;;;5084807;28;20101;-63
2022/12/10 00:23:54;;;;;;;77.72;32.55;;;;;;;;;;5076269;28;20047;-63
2022/12/10 00:26:24;;;;;;;70.60;28.15;;;;;;;;;;5084538;28;20055;-63
2022/12/10 00:28:51;;;;;;;99.38;35.13;;;;;;;;;;5087770;28;20503;-63
2022/12/10 00:31:21;;;;;;;74.35;31.35;;;;;;;;;;5092825;28;20522;-63
2022/12/10 00:33:48;;;;;;;73.47;30.50;;;;;;;;;;5093065;28;20122;-63
2022/12/10 00:36:18;;;;;;;78.90;29.30;;;;;;;;;;5076419;28;20051;-63
2022/12/10 00:38:45;;;;;;;80.97;31.92;;;;;;;;;;5065916;28;20056;-63
2022/12/10 00:41:12;;;;;;;81.82;32.72;;;;;;;;;;5092269;28;20048;-63
2022/12/10 00:43:38;;;;;;;83.05;33.08;;;;;;;;;;5093863;28;20506;-63
2022/12/10 00:46:04;;;;;;;81.80;30.40;;;;;;;;;;5094244;28;20051;-63
2022/12/10 00:48:30;;;;;;;78.35;30.77;;;;;;;;;;5093602;28;20046;-63
2022/12/10 00:51:20;;;;;;;82.90;32.47;;;;;;;;;;5087951;28;20382;-63
2022/12/10 00:53:47;;;;;;;77.07;30.13;;;;;;;;;;5082144;28;20131;-63
2022/12/10 00:56:14;;;;;;;78.90;31.35;;;;;;;;;;5094316;28;20162;-63
2022/12/10 00:58:40;;;;;;;80.45;30.95;;;;;;;;;;5093371;28;20054;-64
2022/12/10 01:01:09;;;;;;;75.00;30.52;;;;;;;;;;5090256;22;20055;-63
2022/12/10 01:03:36;;;;;;;80.15;31.58;;;;;;;;;;5053634;28;20505;-64
2022/12/10 01:06:10;;;;;;;84.03;29.88;;;;;;;;;;5052490;28;20118;-62
2022/12/10 01:08:37;;;;;;;83.78;32.17;;;;;;;;;;5053478;28;20044;-63
2022/12/10 01:11:03;;;;;;;79.97;30.88;;;;;;;;;;5052545;28;20056;-63
2022/12/10 01:13:32;;;;;;;78.78;32.35;;;;;;;;;;5069930;22;20055;31
2022/12/10 01:18:29;;;;;;;84.68;33.15;;;;;;;;;;5094509;22;20048;-63
2022/12/10 01:20:55;;;;;;;85.43;33.22;;;;;;;;;;5083832;28;20054;-63
2022/12/10 01:23:21;;;;;;;77.95;31.00;;;;;;;;;;5113988;28;20040;-63
2022/12/10 01:25:47;;;;;;;82.25;31.90;;;;;;;;;;5101514;28;20503;-63
2022/12/10 01:28:13;;;;;;;80.55;31.20;;;;;;;;;;5112795;28;20414;-63
2022/12/10 01:30:39;;;;;;;81.13;32.38;;;;;;;;;;5112262;28;20051;-63
2022/12/10 01:33:05;;;;;;;84.18;31.02;;;;;;;;;;5107224;28;20503;-62
2022/12/10 01:35:31;;;;;;;81.53;33.40;;;;;;;;;;5076353;28;20119;-63
2022/12/10 01:37:57;;;;;;;77.18;28.15;;;;;;;;;;5092939;28;20040;-62
2022/12/10 01:40:23;;;;;;;85.15;32.03;;;;;;;;;;5077038;28;20439;-62
2022/12/10 01:42:49;;;;;;;86.35;33.38;;;;;;;;;;5108758;28;20503;-62
2022/12/10 01:45:15;;;;;;;78.90;28.35;;;;;;;;;;5112345;28;20172;-62
2022/12/10 01:47:41;;;;;;;81.20;29.60;;;;;;;;;;5094018;28;20039;-62
2022/12/10 01:50:08;;;;;;;90.43;34.03;;;;;;;;;;5112239;28;20054;-62
2022/12/10 01:52:34;;;;;;;87.13;33.30;;;;;;;;;;5095467;28;20063;-62
2022/12/10 01:55:00;;;;;;;92.55;34.67;;;;;;;;;;5077722;28;20120;-62
2022/12/10 01:57:27;;;;;;;88.95;33.83;;;;;;;;;;5108105;28;20040;-62
2022/12/10 01:59:59;;;;;;;87.13;33.55;;;;;;;;;;5112330;28;20376;-62
2022/12/10 02:02:32;;;;;;;88.72;33.45;;;;;;;;;;5111931;28;20046;-62
2022/12/10 02:05:04;;;;;;;90.45;29.63;;;;;;;;;;5109182;28;20115;-62
2022/12/10 02:07:33;;;;;;;92.28;32.63;;;;;;;;;;5087114;28;20058;-63
2022/12/10 02:10:04;;;;;;;92.57;33.28;;;;;;;;;;5093315;28;20059;-62
2022/12/10 02:12:36;;;;;;;83.90;32.75;;;;;;;;;;5113208;28;20196;-62
2022/12/10 02:15:07;;;;;;;86.68;33.03;;;;;;;;;;5091183;28;20039;-62
2022/12/10 02:17:42;;;;;;;96.28;35.17;;;;;;;;;;5099339;28;20052;-63
2022/12/10 02:20:11;;;;;;;88.35;33.67;;;;;;;;;;5087583;28;20055;-63
2022/12/10 02:22:48;;;;;;;89.18;34.58;;;;;;;;;;5094871;28;20051;-63
2022/12/10 02:25:15;;;;;;;89.53;32.22;;;;;;;;;;5111838;28;20491;-63
2022/12/10 02:27:41;;;;;;;93.80;33.95;;;;;;;;;;5111693;28;20054;-63
2022/12/10 02:30:08;;;;;;;87.68;33.80;;;;;;;;;;5104556;28;20415;-63
2022/12/10 02:32:37;;;;;;;85.95;31.35;;;;;;;;;;5112488;28;20048;-63
2022/12/10 02:35:06;;;;;;;90.45;32.97;;;;;;;;;;5108873;28;20071;-62
2022/12/10 02:37:34;;;;;;;78.68;28.88;;;;;;;;;;5090066;28;20043;-62
2022/12/10 02:40:04;;;;;;;96.75;34.58;;;;;;;;;;5092533;28;20484;-62
2022/12/10 02:42:31;;;;;;;93.80;35.58;;;;;;;;;;5112681;28;20044;-63
2022/12/10 02:44:57;;;;;;;98.85;34.97;;;;;;;;;;5097327;28;20051;-63
2022/12/10 02:47:24;;;;;;;92.50;35.42;;;;;;;;;;5083737;28;20050;-62
2022/12/10 02:49:53;;;;;;;86.97;31.98;;;;;;;;;;5110671;28;20456;-63
2022/12/10 02:52:20;;;;;;;89.15;29.20;;;;;;;;;;5094180;28;20455;-62
2022/12/10 02:54:47;;;;;;;98.25;35.40;;;;;;;;;;5112009;28;20051;-63
2022/12/10 02:57:34;;;;;;;96.22;33.15;;;-1.70;99.90;;;;;;5111252;28;20472;-62
2022/12/10 03:00:04;;;;;;;93.35;33.33;;;;;;;;;;5110489;28;20451;-63
2022/12/10 03:02:50;;;;;;;94.40;33.30;;;-1.40;99.90;;;;;;5112483;28;20105;-63
2022/12/10 03:05:33;;;;;;;96.65;36.53;;;;;;;;;;5056071;28;20060;-63
2022/12/10 03:08:04;;;;;;;102.30;35.45;;;;;;;;;;5059019;28;20543;-63
2022/12/10 03:10:30;;;;;;;91.78;27.65;;;;;;;;;;5112283;28;20052;-62
2022/12/10 03:13:00;;;;;;;103.43;34.15;;;;;;;;;;5112299;28;20060;-63
2022/12/10 03:15:28;;;;;;;92.97;34.73;;;;;;;;;;5106155;28;20083;-63
2022/12/10 03:17:55;;;;;;;102.47;35.80;;;;;;;;;;5092363;28;20212;-63
2022/12/10 03:20:23;;;;;;;110.63;40.05;;;;;;;;;;5093974;28;20039;-63
2022/12/10 03:22:50;;;;;;;102.43;37.08;;;;;;;;;;5093262;28;20048;-63
2022/12/10 03:25:19;;;;;;;99.68;35.10;;;;;;;;;;5108609;28;20059;-63
2022/12/10 03:27:47;;;;;;;92.22;32.30;;;;;;;;;;5107004;28;20036;-63
2022/12/10 03:30:13;;;;;;;103.50;37.53;;;;;;;;;;5101476;28;20521;-62
2022/12/10 03:32:39;;;;;;;105.03;34.78;;;;;;;;;;5111744;28;20057;-62
2022/12/10 03:35:06;;;;;;;92.25;35.05;;;;;;;;;;5093479;28;20055;-62
2022/12/10 03:37:32;;;;;;;114.88;39.08;;;;;;;;;;5093466;28;20093;-62
2022/12/10 03:39:59;;;;;;;106.05;37.72;;;;;;;;;;5110596;28;20374;-62
2022/12/10 03:42:25;;;;;;;109.75;37.95;;;;;;;;;;5095927;28;20052;-62
2022/12/10 03:44:52;;;;;;;107.35;35.78;;;;;;;;;;5114621;28;20122;-62
2022/12/10 03:47:18;;;;;;;112.05;37.35;;;;;;;;;;5089621;28;20055;-62
2022/12/10 03:49:44;;;;;;;104.47;36.45;;;;;;;;;;5114578;28;20047;-62
2022/12/10 03:52:10;;;;;;;109.18;39.22;;;;;;;;;;5098040;28;20059;-62
2022/12/10 03:54:37;;;;;;;106.60;38.10;;;;;;;;;;5115244;28;20400;-62
2022/12/10 03:57:03;;;;;;;111.55;38.10;;;;;;;;;;5084111;28;20044;-62
2022/12/10 03:59:29;;;;;;;102.07;36.40;;;;;;;;;;5114744;28;20047;-62
2022/12/10 04:01:55;;;;;;;103.60;33.58;;;;;;;;;;5095634;28;20130;-62
2022/12/10 04:04:21;;;;;;;115.97;36.78;;;;;;;;;;5113941;28;20093;-63
2022/12/10 04:06:47;;;;;;;114.72;40.83;;;;;;;;;;5120441;27;20051;-63
2022/12/10 04:09:14;;;;;;;105.20;37.03;;;;;;;;;;5114811;28;20058;-63
2022/12/10 04:16:54;;;;;;;125.75;40.28;;;;;;;;;;5073718;28;20056;-62
2022/12/10 04:19:20;;;;;;;143.43;41.35;;;;;;;;;;5073366;28;20041;-62
2022/12/10 04:27:48;;;;;;;123.25;39.58;;;-1.00;99.90;;;;;;5076777;22;20101;-64
2022/12/10 04:30:14;;;;;;;129.75;39.38;;;;;;;;;;5008302;28;20107;-63
2022/12/10 04:32:40;;;;;;;129.82;36.80;;;;;;;;;;5034190;28;20049;-63
2022/12/10 04:35:07;;;;;;;115.72;36.65;;;;;;;;;;5044971;28;20052;-64
2022/12/10 04:37:33;;;;;;;151.30;38.28;;;;;;;;;;5036413;28;20417;-64
2022/12/10 04:39:59;;;;;;;143.23;38.83;;;;;;;;;;5017855;28;20088;-64
2022/12/10 04:42:25;;;;;;;142.15;39.78;;;;;;;;;;5016549;28;20041;-63
2022/12/10 04:44:51;;;;;;;136.18;38.72;;;;;;;;;;5042925;28;20052;-64
2022/12/10 04:47:17;;;;;;;181.90;42.60;;;;;;;;;;5054059;28;20056;-64
2022/12/10 04:49:43;;;;;;;120.85;39.10;;;;;;;;;;5036672;28;20052;-64
2022/12/10 04:52:11;;;;;;;187.63;42.90;;;;;;;;;;5033453;28;20049;-63
2022/12/10 04:54:37;;;;;;;249.75;44.20;;;;;;;;;;5038376;28;20094;-63
2022/12/10 04:57:03;;;;;;;217.27;45.28;;;;;;;;;;5053675;28;20048;-63
2022/12/10 04:59:29;;;;;;;243.35;43.53;;;;;;;;;;5039666;28;20055;-63
2022/12/10 05:01:55;;;;;;;133.70;39.65;;;;;;;;;;5032469;28;20107;-63
2022/12/10 05:04:21;;;;;;;230.75;40.92;;;;;;;;;;5027188;28;20381;-62
2022/12/10 05:06:49;;;;;;;180.55;38.38;;;;;;;;;;5015651;28;20513;-63
2022/12/10 05:09:15;;;;;;;199.65;42.40;;;;;;;;;;4997760;28;20046;-63
2022/12/10 05:11:44;;;;;;;239.45;42.58;;;;;;;;;;5032431;28;20045;-64
2022/12/10 05:14:11;;;;;;;347.65;45.92;;;;;;;;;;5040542;28;20045;-64
2022/12/10 05:16:37;;;;;;;241.55;41.53;;;;;;;;;;5026124;28;20053;-63
2022/12/10 05:19:03;;;;;;;170.77;36.42;;;;;;;;;;5029151;28;20092;-63
2022/12/10 05:24:15;;;;;;;226.23;36.92;;;;;;;;;;5022249;28;20051;-63
2022/12/10 05:26:41;;;;;;;274.08;39.80;;;;;;;;;;5053125;28;20075;-63
2022/12/10 05:29:07;;;;;;;167.15;32.20;;;;;;;;;;5040734;28;20053;-64
2022/12/10 05:31:33;;;;;;;179.50;31.92;;;;;;;;;;5029988;28;20057;-63
2022/12/10 05:33:59;;;;;;;235.27;37.03;;;;;;;;;;5042461;28;20041;-63
2022/12/10 05:36:27;;;;;;;66.90;26.48;;;;;;;;;;5052832;28;20041;-63
2022/12/10 05:38:55;;;;;;;134.05;30.85;;;;;;;;;;5036959;28;20056;-63
2022/12/10 05:41:22;;;;;;;129.23;29.92;;;;;;;;;;5028058;28;20084;-64
2022/12/10 05:43:49;;;;;;;163.45;32.10;;;;;;;;;;5045900;28;20926;-63
2022/12/10 05:46:16;;;;;;;148.02;31.00;;;;;;;;;;5041359;28;20049;-63
2022/12/10 05:48:42;;;;;;;150.32;32.03;;;;;;;;;;5031230;28;20038;-63
2022/12/10 05:51:09;;;;;;;141.38;31.60;;;;;;;;;;5031929;28;20045;-62
2022/12/10 05:53:36;;;;;;;127.72;24.65;;;;;;;;;;5015799;28;20041;-63
2022/12/10 05:56:04;;;;;;;172.57;32.85;;;;;;;;;;5048282;28;20575;-63
2022/12/10 05:58:30;;;;;;;98.88;28.88;;;;;;;;;;5025524;28;20247;-63
2022/12/10 06:00:57;;;;;;;158.88;32.35;;;;;;;;;;5043236;28;20049;-63
2022/12/10 06:03:23;;;;;;;152.10;30.13;;;;;;;;;;5045548;28;20099;-63
2022/12/10 06:05:49;;;;;;;126.93;29.90;;;;;;;;;;5034784;28;20052;-64
2022/12/10 06:08:15;;;;;;;289.50;39.28;;;;;;;;;;5024310;28;20056;-61
2022/12/10 06:10:41;;;;;;;247.70;35.15;;;;;;;;;;5036272;28;20127;-64
2022/12/10 06:13:07;;;;;;;352.75;41.30;;;;;;;;;;5025484;28;20132;-62
2022/12/10 06:15:34;;;;;;;215.02;33.97;;;;;;;;;;5032376;28;20077;-62
2022/12/10 06:18:00;;;;;;;205.82;34.00;;;;;;;;;;5013148;28;20490;-62
2022/12/10 06:20:26;;;;;;;415.63;46.78;;;;;;;;;;5032575;28;20041;-62
2022/12/10 06:22:52;;;;;;;208.50;34.25;;;;;;;;;;5047851;28;20059;-62
2022/12/10 06:25:19;;;;;;;231.82;33.45;;;;;;;;;;5052141;28;20045;-62
2022/12/10 06:27:45;;;;;;;126.00;29.10;;;;;;;;;;5026570;28;20048;-62
2022/12/10 06:30:11;;;;;;;172.15;29.20;;;;;;;;;;5033996;28;20053;-62
2022/12/10 06:32:37;;;;;;;276.05;36.78;;;;;;;;;;5030944;28;20180;-62
2022/12/10 06:35:04;;;;;;;130.15;26.17;;;;;;;;;;5034118;28;20409;-62
2022/12/10 06:37:30;;;;;;;287.02;37.63;;;;;;;;;;5028230;28;20044;-63
2022/12/10 06:39:56;;;;;;;244.35;36.25;;;;;;;;;;5051901;28;20044;-63
2022/12/10 06:42:22;;;;;;;351.08;44.08;;;;;;;;;;5030486;28;20155;-63
2022/12/10 06:44:48;;;;;;;112.70;29.02;;;;;;;;;;5024286;28;20049;-63
2022/12/10 06:47:14;;;;;;;230.23;32.20;;;;;;;;;;5030266;28;20517;-63
2022/12/10 06:49:41;;;;;;;290.20;36.33;;;;;;;;;;5039328;28;20063;-63
2022/12/10 06:52:07;;;;;;;191.23;29.60;;;;;;;;;;5051410;28;20049;-63
2022/12/10 06:54:33;;;;;;;202.98;30.80;;;;;;;;;;5010950;28;20612;-63
2022/12/10 06:56:59;;;;;;;218.40;33.75;;;;;;;;;;5014299;28;20396;-63
2022/12/10 06:59:25;;;;;;;178.73;31.58;;;;;;;;;;5024291;28;20041;-63
2022/12/10 07:01:51;;;;;;;257.40;35.55;;;;;;;;;;5030831;28;20037;-63
2022/12/10 07:04:17;;;;;;;279.10;36.95;;;;;;;;;;5029698;28;20056;-62
2022/12/10 07:06:43;;;;;;;180.13;29.15;;;;;;;;;;5033877;28;20546;-62
2022/12/10 07:09:10;;;;;;;171.65;32.85;;;;;;;;;;4998096;28;20059;-63
2022/12/10 07:11:36;;;;;;;241.00;36.55;;;;;;;;;;5031130;28;20037;-62
2022/12/10 07:14:03;;;;;;;222.88;31.27;;;;;;;;;;5012617;28;20046;-62
2022/12/10 07:16:30;;;;;;;189.20;33.70;;;;;;;;;;5043798;28;20076;-63
2022/12/10 07:18:57;;;;;;;142.32;32.67;;;;;;;;;;5027185;28;20053;-62
2022/12/10 07:21:27;;;;;;;326.02;40.67;;;;;;;;;;5016994;28;20041;-63
2022/12/10 07:23:55;;;;;;;406.13;43.08;;;;;;;;;;5042224;28;20041;-63
2022/12/10 07:26:22;;;;;;;163.90;30.60;;;;;;;;;;5069638;22;20048;-63
2022/12/10 07:28:48;;;;;;;262.63;35.60;;;;;;;;;;5069601;28;20059;-62
2022/12/10 07:31:14;;;;;;;298.35;38.22;;;;;;;;;;5094217;28;20090;-62
2022/12/10 07:33:40;;;;;;;142.18;29.88;;;;;;;;;;5092656;28;20439;-63
2022/12/10 07:36:08;;;;;;;182.27;28.73;;;;;;;;;;5077295;28;20535;-63
2022/12/10 07:38:34;;;;;;;254.25;37.42;;;;;;;;;;5094629;28;20040;-63
2022/12/10 07:41:08;;;;;;;128.10;31.17;;;;;;;;;;5091199;28;20048;-63
2022/12/10 07:43:38;;;;;;;258.73;34.95;;;;;;;;;;5091742;28;20048;-64
2022/12/10 07:46:08;;;;;;;152.57;30.80;;;;;;;;;;5084684;28;20075;-63
2022/12/10 07:48:35;;;;;;;235.70;34.25;;;;;;;;;;5092211;28;20561;-64
2022/12/10 07:51:01;;;;;;;193.70;34.00;;;;;;;;;;5075791;28;20080;-61
2022/12/10 07:53:27;;;;;;;167.75;28.45;;;;;;;;;;5093639;28;20044;-63
2022/12/10 07:55:53;;;;;;;119.28;28.15;;;;;;;;;;5093645;28;20412;-63
2022/12/10 07:58:19;;;;;;;229.48;30.48;;;;;;;;;;5084663;28;20123;-63
2022/12/10 08:00:45;;;;;;;227.32;32.00;;;;;;;;;;5091965;28;20051;-63
2022/12/10 08:03:11;;;;;;;221.02;31.60;;;;;;;;;;5092451;28;20123;-63
2022/12/10 08:05:37;;;;;;;274.83;32.90;;;;;;;;;;5074583;28;20051;-63
2022/12/10 08:08:04;;;;;;;271.77;36.08;;;;;;;;;;5058449;28;20128;-63
2022/12/10 08:10:30;;;;;;;139.32;26.52;;;;;;;;;;5092635;28;20104;-63
2022/12/10 08:12:56;;;;;;;288.08;38.47;;;;;;;;;;5078110;28;20549;-64
2022/12/10 08:15:22;;;;;;;204.05;32.47;;;;;;;;;;5089588;28;20036;-63
2022/12/10 08:17:48;;;;;;;161.43;22.00;;;;;;;;;;5087220;28;20044;-63
2022/12/10 08:20:14;;;;;;;189.10;27.38;;;;;;;;;;5073191;28;20035;-63
2022/12/10 08:22:40;;;;;;;176.52;26.13;;;;;;;;;;5081589;28;20151;-64
2022/12/10 08:25:06;;;;;;;251.07;33.10;;;;;;;;;;5096595;28;20042;-63
2022/12/10 08:27:33;;;;;;;256.42;31.50;;;;;;;;;;5102668;28;20055;-63
2022/12/10 08:29:59;;;;;;;100.88;24.70;;;;;;;;;;5063666;28;20327;-63
2022/12/10 08:32:25;;;;;;;139.50;24.52;;;;;;;;;;5092756;28;20059;-63
2022/12/10 08:34:51;;;;;;;139.88;27.13;;;;;;;;;;5095208;28;20475;-63
2022/12/10 08:37:17;;;;;;;148.27;26.98;;;;;;;;;;5078233;28;20141;-64
2022/12/10 08:39:43;;;;;;;226.52;32.38;;;;;;;;;;5100764;28;20055;-64
2022/12/10 08:42:09;;;;;;;138.43;30.85;;;;;;;;;;5076704;28;20050;-63
2022/12/10 08:44:35;;;;;;;202.93;32.25;;;;;;;;;;5087306;28;20063;-63
2022/12/10 08:47:01;;;;;;;130.75;27.48;;;;;;;;;;5091252;28;20181;-62
2022/12/10 08:49:27;;;;;;;119.63;23.73;;;;;;;;;;5113809;28;20040;-63
2022/12/10 08:51:53;;;;;;;184.35;30.15;;;;;;;;;;5079196;28;20377;-63
2022/12/10 08:54:19;;;;;;;265.75;35.08;;;;;;;;;;5095209;28;20048;-63
2022/12/10 08:56:45;;;;;;;219.65;33.70;;;;;;;;;;5113480;28;20051;-63
2022/12/10 08:59:12;;;;;;;148.13;28.55;;;;;;;;;;5094299;28;20039;-63
2022/12/10 09:01:38;;;;;;;77.40;23.73;;;;;;;;;;5113241;28;20123;-63
2022/12/10 09:04:04;;;;;;;129.00;26.10;;;;;;;;;;5094405;28;20106;-63
2022/12/10 09:06:30;;;;;;;105.25;25.52;;;;;;;;;;5114046;28;20503;-63
2022/12/10 09:08:56;;;;;;;141.73;25.52;;;;;;;;;;5091326;28;20511;-62
2022/12/10 09:11:27;;;;;;;141.80;27.95;;;;;;;;;;5082643;28;20047;-63
2022/12/10 09:13:54;;;;;;;118.43;25.52;;;;;;;;;;5111215;28;20053;-63
2022/12/10 09:16:20;;;;;;;180.90;29.83;;;;;;;;;;5095223;28;20051;-63
2022/12/10 09:18:46;;;;;;;204.40;29.30;;;;;;;;;;5112739;28;20048;-63
2022/12/10 09:21:14;;;;;;;100.68;23.23;;;;;;;;;;5095900;28;20101;-63
2022/12/10 09:23:41;;;;;;;131.98;29.33;;;;;;;;;;5091720;28;20103;-63
2022/12/10 09:26:08;;;;;;;117.88;24.30;;;;;;;;;;5091278;28;20050;-63
2022/12/10 09:28:35;;;;;;;142.77;28.85;;;;;;;;;;5086968;28;20056;-62
2022/12/10 09:31:02;;;;;;;115.63;25.30;;;;;;;;;;5109312;28;20046;-63
2022/12/10 09:33:28;;;;;;;116.45;27.75;;;;;;;;;;5110963;28;20044;-62
2022/12/10 09:35:54;;;;;;;123.75;26.98;;;;;;;;;;5092038;28;20039;-63
2022/12/10 09:38:20;;;;;;;192.07;33.42;;;;;;;;;;5081210;28;20036;-63
2022/12/10 09:40:56;;;;;;;142.05;30.00;;;;;;;;;;5089188;28;20043;-64
2022/12/10 09:43:37;;;;;;;120.82;25.38;;;;;;;;;;5087369;28;20407;-63
2022/12/10 09:46:12;;;;;;;140.23;26.02;;;;;;;;;;5099972;28;20400;-63
2022/12/10 09:48:51;;;;;;;111.20;25.20;;;;;;;;;;5089981;28;20205;-62
2022/12/10 09:51:25;;;;;;;89.80;24.58;;;;;;;;;;5106322;28;20046;-63
2022/12/10 09:53:58;;;;;;;120.68;26.23;;;;;;;;;;5112557;28;20483;-64
2022/12/10 09:56:26;;;;;;;92.28;23.55;;;;;;;;;;5111409;28;20048;-63
2022/12/10 09:58:52;;;;;;;87.25;23.95;;;;;;;;;;5112082;28;20047;-63
2022/12/10 10:01:20;;;;;;;69.55;21.00;;;;;;;;;;5083054;28;20069;-63
2022/12/10 10:03:46;;;;;;;81.70;24.40;;;;;;;;;;5095898;28;20419;-63
2022/12/10 10:06:13;;;;;;;109.40;25.52;;;;;;;;;;5112950;28;20101;-63
2022/12/10 10:08:57;;;;;;;137.52;26.27;;;;;;;;;;5076121;28;20075;-63
2022/12/10 10:11:33;;;;;;;104.97;24.60;;;;;;;;;;5088203;28;20051;-63
2022/12/10 10:13:59;;;;;;;135.55;25.55;;;;;;;;;;5093127;28;20158;-63
2022/12/10 10:16:31;;;;;;;130.60;26.45;;;;;;;;;;5076718;28;20511;-63
2022/12/10 10:19:13;;;;;;;165.32;31.85;;;;;;;;;;5110770;28;20050;-63
2022/12/10 10:21:42;;;;;;;136.55;26.98;;;;;;;;;;5084964;28;20040;-63
2022/12/10 10:24:13;;;;;;;125.45;27.58;;;;;;;;;;5102326;22;20086;-63
2022/12/10 10:26:39;;;;;;;179.27;30.25;;;;;;;;;;5072027;28;20058;-64
2022/12/10 10:29:07;;;;;;;173.43;30.23;;;;;;;;;;5084921;28;20093;-62
2022/12/10 10:31:34;;;;;;;135.48;27.88;;;;;;;;;;5057649;28;20052;-63
2022/12/10 10:34:01;;;;;;;121.88;28.60;;;;;;;;;;5092006;28;20079;-63
2022/12/10 10:36:29;;;;;;;155.32;29.88;;;;;;;;;;5091850;28;20374;-63
2022/12/10 10:38:55;;;;;;;120.30;26.30;;;;;;;;;;5075430;28;20097;-63
2022/12/10 10:41:21;;;;;;;152.48;29.65;;;;;;;;;;5084575;28;20056;-63
2022/12/10 10:43:48;;;;;;;102.18;27.60;;;;;;;;;;5091863;28;20055;-63
2022/12/10 10:46:16;;;;;;;154.85;29.15;;;;;;;;;;5092128;28;20056;-63
2022/12/10 10:48:42;;;;;;;114.60;27.30;;;;;;;;;;5091712;28;20047;-63
2022/12/10 10:51:08;;;;;;;195.27;32.88;;;;;;;;;;5073939;28;20036;-63
2022/12/10 10:53:45;;;;;;;173.00;30.65;;;;;;;;;;5060465;28;20483;-63
2022/12/10 10:56:16;;;;;;;145.68;30.98;;;;;;;;;;5091320;28;20492;-63
2022/12/10 10:58:55;;;;;;;122.28;29.80;;;;;;;;;;5091629;28;20119;-63
2022/12/10 11:01:21;;;;;;;185.13;33.83;;;;;;;;;;5073247;28;20511;-63
2022/12/10 11:03:48;;;;;;;137.70;29.13;;;;;;;;;;5091556;28;20079;-63
2022/12/10 11:06:14;;;;;;;102.35;29.75;;;;;;;;;;5086308;28;20048;-62
2022/12/10 11:08:42;;;;;;;108.15;28.10;;;;;;;;;;5090985;28;20119;-63
2022/12/10 11:11:34;;;;;;;137.48;32.10;;;;;;;;;;5074045;28;20102;-63
2022/12/10 11:14:19;;;;;;;108.72;29.60;;;;;;;;;;5085337;28;20064;-63
2022/12/10 11:16:45;;;;;;;89.15;27.75;;;;;;;;;;5091057;28;20058;-62
2022/12/10 11:19:20;;;;;;;101.88;26.83;;;;;;;;;;5090852;28;20052;-63
2022/12/10 11:21:46;;;;;;;130.60;28.40;;;;;;;;;;5089020;28;20500;-63
2022/12/10 11:24:12;;;;;;;95.05;30.73;;;;;;;;;;5088037;28;20074;-63
2022/12/10 11:26:38;;;;;;;118.70;28.70;;;;;;;;;;5071893;28;20056;-63
2022/12/10 11:29:10;;;;;;;116.65;28.90;;;;;;;;;;5071749;28;20045;-63
2022/12/10 11:31:58;;;;;;;135.52;30.77;;;0.70;99.90;;;;;;5074513;28;20061;-64
2022/12/10 11:34:33;;;;;;;117.28;28.15;;;;;;;;;;5052366;28;20401;-64
2022/12/10 11:37:02;;;;;;;132.43;30.77;;;;;;;;;;5049662;28;20045;-64
2022/12/10 11:39:37;;;;;;;98.22;29.35;;;;;;;;;;5070383;28;20485;-63
2022/12/10 11:42:23;;;;;;;90.45;27.48;;;0.50;99.90;;;;;;5071139;28;20044;-63
2022/12/10 11:45:08;;;;;;;96.82;27.55;;;0.70;99.90;;;;;;5029239;28;20455;-63
2022/12/10 11:47:37;;;;;;;122.25;30.10;;;;;;;;;;5063573;28;20049;-63
2022/12/10 11:50:06;;;;;;;82.85;27.10;;;;;;;;;;5066790;28;20136;-63
2022/12/10 11:52:41;;;;;;;105.40;30.20;;;;;;;;;;5069717;28;20083;-63
2022/12/10 11:55:26;;;;;;;133.98;32.28;;;;;;;;;;5069369;28;20044;-63
2022/12/10 11:58:02;;;;;;;109.00;26.70;;;;;;;;;;5055509;28;20049;-55
2022/12/10 12:00:35;;;;;;;106.88;29.58;;;;;;;;;;5080731;28;20400;-64
2022/12/10 12:03:16;;;;;;;165.88;32.45;;;;;;;;;;5074477;28;20080;-63
2022/12/10 12:05:45;;;;;;;102.07;29.63;;;;;;;;;;5056082;28;20084;-64
2022/12/10 12:08:56;;;;;;;98.53;29.35;;;0.90;99.90;;;;;;5055952;28;20049;-63
2022/12/10 12:11:50;;;;;;;105.57;30.98;;;0.50;99.90;;;;;;5033690;28;20053;-64
2022/12/10 12:14:18;;;;;;;103.45;27.83;;;;;;;;;;5074485;28;20051;-64
2022/12/10 12:16:48;;;;;;;95.40;28.38;;;;;;;;;;5076765;28;20083;-64
2022/12/10 12:19:20;;;;;;;94.13;25.80;;;;;;;;;;5060099;28;20056;-64
2022/12/10 12:21:47;;;;;;;103.10;27.33;;;;;;;;;;5055919;28;20421;-64
2022/12/10 12:24:18;;;;;;;94.90;26.13;;;;;;;;;;5078503;28;20093;-63
2022/12/10 12:26:47;;;;;;;85.40;25.42;;;;;;;;;;5059535;28;20051;-63
2022/12/10 12:29:23;;;;;;;79.15;27.02;;;;;;;;;;5060492;28;20519;-63
2022/12/10 12:31:55;;;;;;;83.35;26.27;;;;;;;;;;5066682;28;20443;-63
2022/12/10 12:34:24;;;;;;;80.43;25.33;;;;;;;;;;5073265;28;20047;-63
2022/12/10 12:36:51;;;;;;;91.80;25.88;;;;;;;;;;5055832;28;20516;-63
2022/12/10 12:39:17;;;;;;;89.10;23.15;;;;;;;;;;5074354;28;20052;-63
2022/12/10 12:42:01;;;;;;;85.32;27.80;;;;;;;;;;5073304;28;20067;-63
2022/12/10 12:44:46;;;;;;;83.82;25.83;;;;;;;;;;5073200;28;20048;-62
2022/12/10 12:47:46;;;;;;;104.28;25.88;;;0.50;99.90;;;;;;5055500;28;20044;-62
2022/12/10 12:50:19;;;;;;;94.28;27.80;;;;;;;;;;5073907;28;20044;-63
2022/12/10 12:52:49;;;;;;;103.15;26.55;;;;;;;;;;5039578;28;20139;-63
2022/12/10 12:55:18;;;;;;;70.38;24.63;;;;;;;;;;5055712;28;20052;-62
2022/12/10 12:57:47;;;;;;;67.65;23.00;;;;;;;;;;5071981;28;20396;-62
2022/12/10 13:00:19;;;;;;;89.70;27.23;;;;;;;;;;5073747;28;20063;-62
2022/12/10 13:02:54;;;;;;;97.05;27.60;;;;;;;;;;5073685;28;20060;-63
2022/12/10 13:05:29;;;;;;;84.53;27.25;;;;;;;;;;5073812;28;20066;-62
2022/12/10 13:08:14;;;;;;;96.70;27.65;;;;;;;;;;5055661;28;20056;-62
2022/12/10 13:10:46;;;;;;;107.75;27.33;;;;;;;;;;5072071;28;20508;-63
2022/12/10 13:13:24;;;;;;;108.22;28.63;;;;;;;;;;5058448;28;20114;-62
2022/12/10 13:15:51;;;;;;;87.18;28.05;;;;;;;;;;5073797;28;20040;-62
2022/12/10 13:18:18;;;;;;;97.88;27.50;;;;;;;;;;5072867;28;20051;-62
2022/12/10 13:21:21;;;;;;;87.43;29.85;;;0.50;99.90;;;;;;5074830;28;20123;-63
2022/12/10 13:23:50;;;;;;;80.82;23.77;;;;;;;;;;5054844;28;20055;-62
2022/12/10 13:26:24;;;;;;;70.53;24.85;;;;;;;;;;5066044;28;20075;-62
2022/12/10 13:28:51;;;;;;;77.45;26.00;;;;;;;;;;5054397;28;20048;-62
2022/12/10 13:31:22;;;;;;;101.28;26.15;;;;;;;;;;5072038;28;20078;-62
2022/12/10 13:34:04;;;;;;;109.63;26.35;;;;;;;;;;5065466;28;20055;-62
2022/12/10 13:36:33;;;;;;;90.70;26.92;;;;;;;;;;5058684;28;20053;-62
2022/12/10 13:39:05;;;;;;;87.18;27.45;;;;;;;;;;5059276;28;20087;-62
2022/12/10 13:44:38;;;;;;;141.32;28.75;;;;;;;;;;5064996;28;20493;-62
2022/12/10 13:47:06;;;;;;;107.03;29.73;;;;;;;;;;5060748;28;20064;-62
2022/12/10 13:49:37;;;;;;;101.28;27.67;;;;;;;;;;5060867;28;20059;-62
2022/12/10 13:52:03;;;;;;;;;;;0.50;99.90;;;;;;5064013;28;20581;-62
2022/12/10 13:54:50;;;;;;;100.18;24.50;;;0.40;99.90;;;;;;5053906;28;20007;-62
2022/12/10 13:57:16;;;;;;;96.68;27.55;;;;;;;;;;5072467;28;20139;-62
2022/12/10 13:59:54;;;;;;;86.13;23.77;;;;;;;;;;5054496;28;20131;-63
2022/12/10 14:05:01;;;;;;;93.82;26.25;;;;;;;;;;5088193;22;20063;-62
2022/12/10 14:07:28;;;;;;;131.68;27.48;;;;;;;;;;5084590;28;20042;-62
2022/12/10 14:09:55;;;;;;;84.50;25.70;;;;;;;;;;5097549;28;20028;-62
2022/12/10 14:12:26;;;;;;;133.70;29.50;;;;;;;;;;5097318;28;20042;-62
2022/12/10 14:15:00;;;;;;;104.15;26.15;;;;;;;;;;5103456;28;20410;-62
2022/12/10 14:17:32;;;;;;;88.45;25.42;;;;;;;;;;5096772;28;20070;-61
2022/12/10 14:19:59;;;;;;;97.07;26.88;;;;;;;;;;5090955;28;20040;-62
2022/12/10 14:22:34;;;;;;;133.38;27.90;;;;;;;;;;5098110;22;20056;-62
2022/12/10 14:25:04;;;;;;;142.35;29.83;;;;;;;;;;5072691;28;20044;-62
2022/12/10 14:27:30;;;;;;;117.00;25.98;;;;;;;;;;5072080;28;20044;-62
2022/12/10 14:30:02;;;;;;;172.25;30.88;;;;;;;;;;5070412;28;20048;-62
2022/12/10 14:32:36;;;;;;;105.32;26.23;;;;;;;;;;5052277;28;20045;-62
2022/12/10 14:35:04;;;;;;;114.05;27.73;;;;;;;;;;5068291;28;20044;-62
2022/12/10 14:37:34;;;;;;;145.23;28.25;;;;;;;;;;5071757;28;20098;-62
2022/12/10 14:40:00;;;;;;;236.13;32.50;;;;;;;;;;5052164;28;20051;-62